Time;durP1;ratioP1;P1;durP2;ratioP2;P2;SDS_P1;SDS_P2;PMS_P1;PMS_P2;Temp;Humidity;BMP_temperature;BMP_pressure;BME280_temperature;BME280_humidity;BME280_pressure;Samples;Min_cycle;Max_cycle;Signal;HPM_P1;HPM_P2
2021/01/22 00:02:07;;;;;;;8.13;7.45;;;;;;;5.12;93.52;101671.00;4917631;29;20052;-87
2021/01/22 00:04:34;;;;;;;7.90;7.25;;;;;;;4.26;93.38;101526.97;4918165;29;20051;-87
2021/01/22 00:07:01;;;;;;;14.00;7.32;;;;;;;5.53;93.73;101731.94;4918279;29;20036;-89
2021/01/22 00:09:27;;;;;;;9.60;7.90;;;;;;;4.81;93.08;101608.13;4902052;29;20065;-85
2021/01/22 00:11:54;;;;;;;6.47;6.05;;;;;;;5.06;92.63;101655.31;4917003;29;20028;-85
2021/01/22 00:14:21;;;;;;;8.68;8.02;;;;;;;4.88;91.85;101659.28;4918167;29;20020;-86
2021/01/22 00:16:48;;;;;;;8.07;6.22;;;;;;;5.16;91.73;101694.28;4914899;29;20418;-88
2021/01/22 00:19:15;;;;;;;22.52;10.32;;;;;;;4.42;91.69;101582.66;4920154;29;20485;-87
2021/01/22 00:21:42;;;;;;;6.88;6.20;;;;;;;5.34;91.84;101728.75;4900071;29;20040;-86
2021/01/22 00:24:09;;;;;;;5.68;4.65;;;;;;;4.63;91.82;101617.56;4918559;29;20024;-85
2021/01/22 00:26:36;;;;;;;3.92;3.72;;;;;;;4.07;91.82;101533.88;4902112;29;20028;-89
2021/01/22 00:29:03;;;;;;;5.85;3.72;;;;;;;4.60;91.95;101629.78;4901189;29;20039;-86
2021/01/22 00:31:30;;;;;;;7.10;6.50;;;;;;;5.08;91.75;101719.09;4919205;29;20378;-83
2021/01/22 00:33:57;;;;;;;5.57;4.88;;;;;;;4.27;91.43;101555.25;4919054;29;20035;-87
2021/01/22 00:36:24;;;;;;;12.25;4.10;;;;;;;5.37;91.48;101749.47;4932704;29;20076;-85
2021/01/22 00:38:51;;;;;;;11.05;7.57;;;;;;;4.91;91.79;101660.81;4917043;29;20486;-85
2021/01/22 00:41:18;;;;;;;2.92;2.72;;;;;;;5.41;91.66;101739.81;4918306;29;20028;-86
2021/01/22 00:43:45;;;;;;;6.15;5.00;;;;;;;4.57;91.36;101602.72;4904326;29;20397;-85
2021/01/22 00:46:12;;;;;;;4.63;4.32;;;;;;;5.16;90.90;101679.72;4921710;29;20047;-86
2021/01/22 00:48:39;;;;;;;1.95;1.85;;;;;;;5.52;90.79;101753.06;4924819;29;20050;-89
2021/01/22 00:51:06;;;;;;;7.97;7.43;;;;;;;5.08;90.93;101686.16;4924034;29;20060;-88
2021/01/22 00:53:33;;;;;;;4.43;4.13;;;;;;;4.69;90.58;101605.84;4916405;29;20482;-86
2021/01/22 00:56:00;;;;;;;6.05;5.57;;;;;;;4.78;90.04;101632.16;4916647;29;20043;-87
2021/01/22 00:58:26;;;;;;;7.03;3.72;;;;;;;4.72;90.47;101641.13;4901210;29;20945;-86
2021/01/22 01:00:53;;;;;;;1.23;1.20;;;;;;;5.52;89.96;101757.72;4901738;29;20119;-86
2021/01/22 01:03:20;;;;;;;2.58;2.42;;;;;;;5.51;89.85;101734.88;4918094;29;20048;-86
2021/01/22 01:05:47;;;;;;;2.78;2.67;;;;;;;4.37;90.44;101553.94;4897829;29;20482;-88
2021/01/22 01:08:14;;;;;;;2.03;1.92;;;;;;;4.27;90.02;101544.28;4883637;29;20119;-86
2021/01/22 01:10:41;;;;;;;5.38;4.95;;;;;;;4.61;89.95;101592.22;4916603;29;20092;-88
2021/01/22 01:13:07;;;;;;;6.03;5.63;;;;;;;5.18;89.81;101672.97;4916698;29;20028;-88
2021/01/22 01:15:34;;;;;;;8.15;7.60;;;;;;;4.90;89.70;101623.44;4902310;29;20525;-87
2021/01/22 01:18:01;;;;;;;7.53;5.90;;;;;;;5.33;89.47;101683.97;4903374;29;20028;-88
2021/01/22 01:20:28;;;;;;;10.00;8.98;;;;;;;4.77;89.84;101646.88;4919834;29;20033;-88
2021/01/22 01:22:55;;;;;;;7.68;7.20;;;;;;;5.28;90.44;101724.88;4918462;29;20393;-86
2021/01/22 01:25:22;;;;;;;16.02;10.45;;;;;;;5.25;90.07;101711.53;4916935;29;20028;-87
2021/01/22 01:27:49;;;;;;;5.68;5.20;;;;;;;5.05;90.41;101687.41;4917020;29;20032;-89
2021/01/22 01:30:16;;;;;;;36.10;6.13;;;;;;;5.59;90.69;101759.50;4916271;29;20063;-91
2021/01/22 01:32:43;;;;;;;5.28;2.55;;;;;;;5.02;90.26;101653.97;4905194;29;20024;-89
2021/01/22 01:35:10;;;;;;;13.77;5.40;;;;;;;5.09;89.60;101654.06;4901844;29;20167;-89
2021/01/22 01:37:37;;;;;;;5.00;4.75;;;;;;;5.24;89.77;101676.03;4918481;29;20127;-89
2021/01/22 01:40:05;;;;;;;5.93;5.55;;;;;;;4.88;89.86;101631.84;4903165;29;20115;-90
2021/01/22 01:42:32;;;;;;;22.52;7.82;;;;;;;5.22;89.44;101697.34;4917675;29;20478;-89
2021/01/22 01:44:59;;;;;;;21.85;13.23;;;;;;;5.48;90.31;101749.00;4918366;29;20047;-88
2021/01/22 01:47:26;;;;;;;6.78;6.07;;;;;;;5.57;90.09;101764.34;4906540;29;20038;-89
2021/01/22 01:49:53;;;;;;;9.35;8.57;;;;;;;4.82;89.21;101621.66;4936780;29;20027;-89
2021/01/22 01:52:20;;;;;;;7.18;6.53;;;;;;;5.06;89.46;101664.38;4904443;29;20115;-87
2021/01/22 01:54:47;;;;;;;6.15;5.63;;;;;;;5.24;89.76;101696.09;4902097;29;20024;-84
2021/01/22 01:57:15;;;;;;;10.45;9.63;;;;;;;5.46;89.20;101696.13;4880558;29;20140;-85
2021/01/22 01:59:42;;;;;;;5.88;5.47;;;;;;;5.04;87.83;101641.78;4916515;29;20451;-85
2021/01/22 02:02:11;;;;;;;7.05;6.18;;;;;;;4.39;88.23;101529.06;4920107;29;20183;-85
2021/01/22 02:04:39;;;;;;;7.28;5.65;;;;;;;5.33;88.87;101716.91;4924617;29;20030;-83
2021/01/22 02:07:07;;;;;;;7.82;7.22;;;;;;;5.54;89.25;101761.13;4922050;29;20446;-89
2021/01/22 02:09:34;;;;;;;7.82;7.35;;;;;;;4.64;89.13;101594.59;4902279;29;20439;-88
2021/01/22 02:12:01;;;;;;;4.72;4.53;;;;;;;5.60;88.95;101741.13;4900557;29;20028;-88
2021/01/22 02:14:30;;;;;;;5.57;4.72;;;;;;;5.40;88.30;101683.19;4917865;29;20035;-88
2021/01/22 02:16:59;;;;;;;2.78;2.67;;;;;;;4.31;88.22;101497.13;4902195;29;20118;-89
2021/01/22 02:19:42;;;;;;;9.85;2.50;;;;;;;5.16;88.70;101696.19;4901453;29;20032;-90
2021/01/22 02:22:09;;;;;;;2.90;2.78;;;;;;;4.95;88.32;101615.47;4916698;29;20130;-90
2021/01/22 02:24:38;;;;;;;3.58;3.33;;;;;;;5.39;88.02;101659.50;4916830;29;20039;-89
2021/01/22 02:27:06;;;;;;;3.80;3.67;;;;;;;5.60;86.75;101655.97;4917040;29;20036;-90
2021/01/22 02:29:35;;;;;;;7.47;5.45;;;;;;;4.86;86.60;101526.06;4916525;29;20032;-90
2021/01/22 02:32:06;;;;;;;5.53;5.13;;;;;;;5.69;86.86;101659.41;4903041;29;20033;-91
2021/01/22 02:34:37;;;;;;;3.75;3.58;;;;;;;6.14;86.06;101719.75;4916577;29;20043;-86
2021/01/22 02:37:07;;;;;;;2.10;2.05;;;;;;;5.26;85.65;101556.72;4906877;29;20064;-89
2021/01/22 02:39:44;;;;;;;2.75;2.67;;;;;;;5.82;85.21;101625.75;4917523;29;20050;-84
2021/01/22 02:42:12;;;;;;;2.97;2.83;;;;;;;5.94;85.40;101668.13;4904450;29;20032;-89
2021/01/22 02:44:40;;;;;;;1.02;1.02;;;;;;;6.10;86.17;101708.28;4921619;29;20096;-93
2021/01/22 02:47:09;;;;;;;9.43;4.03;;;;;;;6.13;85.90;101699.63;4907638;29;20076;-92
2021/01/22 02:49:37;;;;;;;5.38;4.97;;;;;;;6.16;86.29;101709.41;4915855;29;20048;-92
2021/01/22 02:52:05;;;;;;;3.65;3.45;;;;;;;4.75;85.21;101478.88;4927828;29;20039;-94
2021/01/22 02:54:32;;;;;;;3.03;2.90;;;;;;;5.81;86.18;101630.38;4932458;29;20028;-91
2021/01/22 02:57:02;;;;;;;1.60;1.60;;;;;;;6.28;85.29;101698.72;4916731;29;20403;-92
2021/01/22 02:59:46;;;;;;;2.70;2.60;;;;;;;4.19;84.77;101351.47;4934585;28;20016;-96
2021/01/22 03:02:39;;;;;;;3.13;2.88;;;;;;;5.92;85.00;101631.75;4936091;29;20125;-92
2021/01/22 03:05:38;;;;;;;1.48;1.48;;;;;;;6.16;86.16;101679.16;4923475;29;20059;-91
2021/01/22 03:08:19;;;;;;;8.00;4.75;;;;;;;6.12;86.05;101673.19;4921960;29;20052;-94
2021/01/22 03:10:50;;;;;;;2.97;2.83;;;;;;;6.19;85.71;101675.16;4929338;29;20067;-90
2021/01/22 03:13:18;;;;;;;6.22;2.47;;;;;;;6.24;85.11;101647.94;4926966;29;20013;-94
2021/01/22 03:15:45;;;;;;;6.63;5.60;;;;;;;5.98;85.20;101652.09;4906944;29;20039;-92
2021/01/22 03:18:20;;;;;;;1.10;1.10;;;;;;;6.36;84.83;101665.56;4903358;29;20033;-88
2021/01/22 03:20:49;;;;;;;14.35;5.63;;;;;;;6.55;83.89;101650.25;4882430;29;20033;-88
2021/01/22 03:23:18;;;;;;;6.22;3.90;;;;;;;6.10;84.05;101568.06;4899870;29;20028;-84
2021/01/22 03:25:46;;;;;;;1.98;1.90;;;;;;;6.71;83.15;101639.97;4931680;29;20055;-89
2021/01/22 03:28:14;;;;;;;3.17;2.90;;;;;;;6.39;83.16;101593.66;4939857;29;20051;-87
2021/01/22 03:30:41;;;;;;;5.03;4.60;;;;;;;6.35;82.99;101619.84;4903694;29;20036;-87
2021/01/22 03:33:08;;;;;;;3.25;3.05;;;;;;;6.35;82.89;101608.84;4919281;29;20043;-87
2021/01/22 03:35:35;;;;;;;1.50;1.50;;;;;;;5.61;83.99;101515.63;4919011;29;20040;-88
2021/01/22 03:38:02;;;;;;;4.20;4.00;;;;;;;5.81;84.27;101578.16;4901820;29;20718;-86
2021/01/22 03:40:29;;;;;;;5.15;4.10;;;;;;;5.98;84.45;101591.63;4902332;29;20390;-87
2021/01/22 03:42:56;;;;;;;1.05;1.05;;;;;;;5.43;84.73;101523.50;4916963;29;20778;-87
2021/01/22 03:45:23;;;;;;;8.10;7.10;;;;;;;5.03;85.35;101477.28;4919205;29;20076;-88
2021/01/22 03:47:50;;;;;;;5.63;5.25;;;;;;;6.07;86.02;101659.19;4921296;29;20366;-88
2021/01/22 03:50:17;;;;;;;3.67;2.70;;;;;;;5.50;85.48;101537.28;4933873;29;20036;-87
2021/01/22 03:52:43;;;;;;;4.47;4.18;;;;;;;5.82;86.36;101640.31;4926489;29;20020;-87
2021/01/22 03:55:10;;;;;;;1.88;1.77;;;;;;;5.19;87.22;101561.28;4934341;29;20197;-87
2021/01/22 03:57:37;;;;;;;4.25;3.80;;;;;;;5.60;87.19;101644.97;4932632;29;20039;-93
2021/01/22 04:00:06;;;;;;;5.45;4.07;;;;;;;4.75;87.29;101483.53;4939301;29;20035;-92
2021/01/22 04:02:33;;;;;;;16.02;7.20;;;;;;;5.26;87.35;101573.19;4940975;29;20047;-92
2021/01/22 04:05:00;;;;;;;1.65;1.65;;;;;;;5.32;87.18;101583.41;4939955;29;20047;-91
2021/01/22 04:07:27;;;;;;;3.97;2.47;;;;;;;4.91;87.41;101499.75;4948247;29;20055;-91
2021/01/22 04:09:54;;;;;;;1.88;1.73;;;;;;;5.33;87.26;101535.66;4944636;29;20075;-90
2021/01/22 04:12:21;;;;;;;20.25;5.45;;;;;;;5.56;85.99;101529.13;4941276;29;20047;-88
2021/01/22 04:14:48;;;;;;;3.40;3.30;;;;;;;6.22;84.75;101606.88;4940087;29;20035;-85
2021/01/22 04:17:15;;;;;;;2.13;2.13;;;;;;;5.65;84.82;101549.06;4933727;29;20175;-88
2021/01/22 04:19:43;;;;;;;6.80;3.45;;;;;;;5.51;84.57;101506.88;4926617;29;20477;-88
2021/01/22 04:22:10;;;;;;;8.57;7.75;;;;;;;6.12;85.08;101611.88;4936627;29;20137;-86
2021/01/22 04:24:37;;;;;;;1.55;1.52;;;;;;;5.54;85.06;101525.75;4919397;29;20226;-86
2021/01/22 04:27:05;;;;;;;10.07;9.45;;;;;;;5.38;84.75;101482.03;4930261;29;20187;-86
2021/01/22 04:29:32;;;;;;;1.20;1.20;;;;;;;5.73;85.27;101553.56;4929200;29;20032;-87
2021/01/22 04:31:58;;;;;;;3.97;3.67;;;;;;;5.61;84.63;101514.78;4942589;29;20046;-86
2021/01/22 04:34:25;;;;;;;8.32;6.05;;;;;;;5.55;84.90;101518.31;4940959;29;20031;-88
2021/01/22 04:36:52;;;;;;;6.30;5.95;;;;;;;6.13;84.71;101606.16;4941368;29;20056;-86
2021/01/22 04:39:19;;;;;;;2.88;2.72;;;;;;;5.97;84.73;101573.44;4938983;29;20054;-87
2021/01/22 04:41:47;;;;;;;4.07;3.78;;;;;;;5.40;84.07;101475.31;4944690;29;20028;-90
2021/01/22 04:44:14;;;;;;;1.73;1.73;;;;;;;5.18;84.03;101449.78;4932952;29;20032;-85
2021/01/22 04:46:42;;;;;;;3.70;3.40;;;;;;;5.28;86.09;101534.56;4928727;29;20061;-87
2021/01/22 04:49:10;;;;;;;2.85;2.53;;;;;;;5.53;85.00;101535.00;4913200;29;20032;-90
2021/01/22 04:51:37;;;;;;;4.22;4.03;;;;;;;5.83;84.89;101588.97;4920837;29;20481;-90
2021/01/22 04:54:17;;;;;;;11.60;4.57;;;;;;;5.38;85.16;101524.09;4936613;29;20034;-89
2021/01/22 04:56:47;;;;;;;2.25;2.15;;;;;;;5.75;85.90;101600.94;4919308;29;20038;-89
2021/01/22 04:59:23;;;;;;;3.15;3.05;;;;;;;5.82;85.82;101570.78;4925142;29;20031;-91
2021/01/22 05:01:52;;;;;;;3.97;3.67;;;;;;;5.95;85.13;101581.03;4939829;29;20042;-88
2021/01/22 05:04:19;;;;;;;2.83;2.70;;;;;;;4.52;84.25;101344.66;4920703;29;20037;-86
2021/01/22 05:06:49;;;;;;;3.92;3.70;;;;;;;5.78;85.29;101563.97;4923202;29;20038;-88
2021/01/22 05:09:18;;;;;;;3.38;3.10;;;;;;;4.41;85.15;101313.13;4922996;29;20489;-89
2021/01/22 05:11:44;;;;;;;0.98;0.98;;;;;;;5.69;84.23;101494.56;4936432;29;20040;-89
2021/01/22 05:14:12;;;;;;;2.33;2.22;;;;;;;6.08;84.48;101569.31;4934474;29;20123;-85
2021/01/22 05:16:39;;;;;;;2.53;2.42;;;;;;;5.43;84.63;101479.56;4912344;29;20042;-86
2021/01/22 05:19:22;;;;;;;5.60;4.90;;;;;;;5.18;83.90;101427.81;4917095;29;20036;-88
2021/01/22 05:21:49;;;;;;;8.88;4.00;;;;;;;3.69;83.32;101174.06;4904118;29;20043;-87
2021/01/22 05:24:27;;;;;;;2.13;2.13;;;;;;;6.23;82.68;101549.97;4916832;29;20020;-85
2021/01/22 05:27:07;;;;;;;3.80;2.95;;;;;;;5.97;82.78;101510.22;4910863;29;20505;-85
2021/01/22 05:29:36;;;;;;;1.25;1.25;;;;;;;6.34;82.67;101551.28;4934290;29;20043;-86
2021/01/22 05:32:24;;;;;;;1.88;1.85;;;;;;;5.94;82.77;101497.72;4933481;29;20043;-86
2021/01/22 05:34:51;;;;;;;2.42;2.22;;;;;;;5.95;83.09;101498.56;4926851;29;20484;-84
2021/01/22 05:37:19;;;;;;;8.75;6.47;;;;;;;5.85;83.43;101505.28;4933665;29;20433;-85
2021/01/22 05:39:46;;;;;;;0.45;0.45;;;;;;;5.64;83.45;101475.91;4932716;29;20114;-84
2021/01/22 05:42:13;;;;;;;5.10;4.82;;;;;;;5.91;83.02;101509.13;4930289;29;20550;-84
2021/01/22 05:44:53;;;;;;;2.42;2.22;;;;;;;6.21;83.06;101552.94;4928083;29;20043;-83
2021/01/22 05:47:20;;;;;;;7.10;2.60;;;;;;;5.77;82.71;101469.72;4923964;29;20043;-85
2021/01/22 05:49:55;;;;;;;2.15;2.05;;;;;;;6.18;82.13;101546.97;4930683;29;20047;-85
2021/01/22 05:52:26;;;;;;;3.40;2.17;;;;;;;5.96;81.83;101512.13;4934254;29;20039;-84
2021/01/22 05:54:54;;;;;;;2.95;2.83;;;;;;;5.83;82.14;101471.63;4925709;29;20039;-84
2021/01/22 05:57:21;;;;;;;1.75;0.90;;;;;;;5.03;82.07;101382.06;4938523;29;20046;-83
2021/01/22 06:00:11;;;;;;;1.63;1.63;;;;;;;6.28;82.44;101539.19;4933509;29;20046;-85
2021/01/22 06:02:38;;;;;;;6.63;4.43;;;;;;;4.98;82.32;101342.56;4931539;29;20071;-84
2021/01/22 06:05:09;;;;;;;2.53;2.20;;;;;;;6.34;82.23;101549.41;4930565;29;20091;-84
2021/01/22 06:07:36;;;;;;;;;;;;;;;6.29;82.86;101546.41;4934116;29;20098;-85
2021/01/22 06:10:16;;;;;;;0.55;0.55;;;;;;;6.38;82.86;101539.72;4932001;29;19922;-83
2021/01/22 06:12:50;;;;;;;12.93;3.72;;;;;;;5.47;82.13;101398.47;4916579;29;20034;-84
2021/01/22 06:15:19;;;;;;;74.90;49.20;;;;;;;5.76;82.61;101457.00;4932369;29;20032;-84
2021/01/22 06:17:50;;;;;;;76.97;48.05;;;;;;;5.66;82.04;101426.28;4915784;29;20032;-83
2021/01/22 06:20:20;;;;;;;70.60;47.08;;;;;;;5.40;81.74;101389.34;4921782;29;20126;-84
2021/01/22 06:23:12;;;;;;;77.83;48.77;;;;;;;6.25;82.80;101565.19;4932907;29;20388;-82
2021/01/22 06:25:41;;;;;;;74.25;47.90;;;;;;;5.89;82.67;101506.56;4913424;29;20571;-84
2021/01/22 06:28:12;;;;;;;71.22;43.80;;;;;;;5.75;82.96;101469.03;4932885;29;20553;-85
2021/01/22 06:30:42;;;;;;;67.75;47.83;;;;;;;6.27;82.77;101562.25;4931797;29;20027;-82
2021/01/22 06:33:11;;;;;;;66.10;43.38;;;;;;;6.09;82.71;101560.88;4930981;29;20024;-84
2021/01/22 06:35:38;;;;;;;69.90;44.55;;;;;;;5.02;82.66;101366.66;4926073;29;20167;-85
2021/01/22 06:38:06;;;;;;;62.55;41.00;;;;;;;5.63;82.48;101478.91;4919592;29;20050;-83
2021/01/22 06:40:33;;;;;;;55.28;39.42;;;;;;;5.88;82.73;101510.34;4924911;29;20023;-85
2021/01/22 06:43:01;;;;;;;57.78;38.03;;;;;;;5.72;83.77;101532.66;4927614;29;20035;-83
2021/01/22 06:45:28;;;;;;;50.00;35.03;;;;;;;5.72;83.41;101535.38;4913601;29;20042;-83
2021/01/22 06:48:06;;;;;;;52.42;35.03;;;;;;;6.07;82.77;101556.63;4931975;29;20028;-84
2021/01/22 06:50:35;;;;;;;55.88;34.97;;;;;;;6.14;82.94;101574.84;4929409;29;20027;-84
2021/01/22 06:53:16;;;;;;;48.88;32.92;;;;;;;5.55;83.29;101499.09;4908374;29;20042;-84
2021/01/22 06:55:52;;;;;;;47.08;32.60;;;;;;;5.81;83.68;101564.41;4926709;29;20031;-84
2021/01/22 06:58:32;;;;;;;52.50;35.67;;;;;;;5.77;84.29;101568.63;4932604;29;20028;-82
2021/01/22 07:01:01;;;;;;;52.55;34.28;;;;;;;5.99;83.20;101583.19;4931611;29;20035;-84
2021/01/22 07:03:37;;;;;;;50.80;34.40;;;;;;;5.73;84.62;101572.81;4913874;29;20044;-85
2021/01/22 07:06:06;;;;;;;54.65;35.55;;;;;;;4.71;84.09;101405.41;4915895;29;20054;-83
2021/01/22 07:08:54;;;;;;;49.47;34.17;;;;;;;5.86;83.97;101574.81;4928068;29;20040;-83
2021/01/22 07:11:23;;;;;;;52.45;35.10;;;;;;;4.56;83.98;101386.25;4937655;29;20031;-84
2021/01/22 07:13:51;;;;;;;56.83;36.25;;;;;;;5.58;84.29;101549.00;4928543;29;20496;-84
2021/01/22 07:16:18;;;;;;;61.05;37.10;;;;;;;5.80;84.87;101573.72;4902740;29;20370;-84
2021/01/22 07:18:50;;;;;;;63.85;38.28;;;;;;;5.90;84.38;101578.88;4937840;29;20036;-85
2021/01/22 07:21:25;;;;;;;60.15;38.05;;;;;;;5.98;84.51;101592.47;4926737;29;20122;-87
2021/01/22 07:23:56;;;;;;;74.03;44.72;;;;;;;4.98;84.35;101417.47;4921211;29;20075;-86
2021/01/22 07:26:46;;;;;;;68.70;42.72;;;;;;;5.07;84.84;101443.75;4918130;29;20537;-87
2021/01/22 07:29:33;;;;;;;70.57;41.88;;;;;;;4.37;84.98;101331.00;4903195;29;20623;-90
2021/01/22 07:32:09;;;;;;;64.00;37.20;;;;;;;5.23;85.55;101496.69;4934417;28;20040;-84
2021/01/22 07:34:51;;;;;;;78.50;44.65;;;;;;;3.34;84.73;101164.81;4945627;28;20027;-92
2021/01/22 07:37:36;;;;;;;76.20;41.90;;;;;;;4.19;85.35;101343.25;4948517;28;20036;-94
2021/01/22 07:40:08;;;;;;;69.68;40.97;;;;;;;5.63;86.19;101588.78;4943889;28;20040;-88
2021/01/22 07:42:36;;;;;;;70.30;43.95;;;;;;;4.95;85.89;101486.50;4917397;29;20016;-87
2021/01/22 07:45:13;;;;;;;80.78;43.40;;;;;;;5.73;85.25;101578.31;4924785;29;20055;-88
2021/01/22 07:47:44;;;;;;;75.13;44.70;;;;;;;4.31;85.38;101345.47;4916738;29;20067;-94
2021/01/22 07:50:13;;;;;;;80.35;43.13;;;;;;;5.21;85.89;101531.72;4957313;28;20035;-93
2021/01/22 07:52:48;;;;;;;74.37;45.90;;;;;;;5.05;85.86;101522.69;4954112;28;20044;-93
2021/01/22 07:55:22;;;;;;;83.28;46.33;;;;;;;5.46;86.10;101550.56;4919130;29;20106;-94
2021/01/22 07:58:11;;;;;;;79.13;46.75;;;;;;;5.64;86.20;101590.47;4936356;29;20066;-93
2021/01/22 08:00:43;;;;;;;85.47;48.85;;;;;;;5.67;86.01;101587.31;4928961;29;20024;-92
2021/01/22 08:03:13;;;;;;;73.78;46.03;;;;;;;4.93;85.56;101485.81;4950944;29;20052;-95
2021/01/22 08:05:41;;;;;;;82.57;47.92;;;;;;;3.35;85.88;101224.88;4953193;29;20031;-95
2021/01/22 08:08:20;;;;;;;86.03;47.90;;;;;;;4.82;86.22;101483.59;4954912;28;20035;-94
2021/01/22 08:10:48;;;;;;;85.13;48.92;;;;;;;3.26;86.35;101234.19;4950511;28;20043;-94
2021/01/22 08:13:15;;;;;;;85.35;50.50;;;;;;;4.69;86.37;101452.22;4953243;28;20103;-94
2021/01/22 08:15:44;;;;;;;85.13;50.25;;;;;;;3.12;86.51;101234.03;4942435;28;20036;-96
2021/01/22 08:18:15;;;;;;;86.47;50.95;;;;;;;4.95;86.77;101530.41;4946707;28;20038;-92
2021/01/22 08:20:52;;;;;;;86.40;51.03;;;;;;;5.57;86.60;101610.50;4942414;29;20032;-96
2021/01/22 08:23:25;;;;;;;85.68;51.47;;;;;;;5.44;86.84;101582.88;4952605;28;20660;-94
2021/01/22 08:25:59;;;;;;;88.93;50.90;;;;;;;5.37;86.36;101596.56;4953618;28;20087;-85
2021/01/22 08:28:27;;;;;;;93.85;54.30;;;;;;;5.12;86.76;101541.16;4921083;29;20485;-93
2021/01/22 08:30:54;;;;;;;90.65;54.15;;;;;;;5.37;86.83;101596.56;4914333;29;20012;-89
2021/01/22 08:33:26;;;;;;;90.93;53.30;;;;;;;4.62;87.07;101478.72;4931950;29;20063;-94
2021/01/22 08:35:53;;;;;;;87.05;51.92;;;;;;;4.51;87.30;101456.25;4919856;29;20067;-89
2021/01/22 08:38:23;;;;;;;90.97;52.15;;;;;;;4.97;87.64;101530.19;4906557;29;20195;-94
2021/01/22 08:40:49;;;;;;;95.10;52.72;;;;;;;4.52;87.37;101451.63;4902257;29;20048;-85
2021/01/22 08:43:17;;;;;;;83.40;51.15;;;;;;;4.28;86.94;101411.66;4916447;29;20385;-86
2021/01/22 08:46:12;;;;;;;85.68;51.65;;;;;;;5.60;86.85;101625.75;4918895;29;20413;-85
2021/01/22 08:48:39;;;;;;;85.00;51.13;;;;;;;4.69;86.78;101462.34;4901654;29;20032;-86
2021/01/22 08:51:07;;;;;;;89.88;51.47;;;;;;;5.42;86.57;101587.72;4903103;29;20142;-87
2021/01/22 08:53:48;;;;;;;86.55;49.67;;;;;;;4.83;86.34;101477.06;4918256;29;20028;-85
2021/01/22 08:56:17;;;;;;;90.50;52.35;;;;;;;5.61;86.41;101621.94;4922128;29;20040;-88
2021/01/22 08:59:06;;;;;;;92.43;51.90;;;;;;;5.63;86.76;101624.50;4938483;29;20028;-82
2021/01/22 09:01:54;;;;;;;76.60;47.85;;;;;;;5.43;86.71;101587.53;4937918;29;20047;-88
2021/01/22 09:04:27;;;;;;;88.70;48.58;;;;;;;4.80;86.02;101461.84;4935364;29;20229;-85
2021/01/22 09:07:02;;;;;;;75.88;49.95;;;;;;;5.31;85.77;101543.25;4936626;29;22200;-84
2021/01/22 09:09:48;;;;;;;81.65;49.72;;;;;;;5.96;85.29;101648.69;4943493;29;20469;-89
2021/01/22 09:12:15;;;;;;;89.38;49.90;;;;;;;5.94;85.10;101648.06;4946165;29;20039;-83
2021/01/22 09:15:01;;;;;;;81.40;47.20;;;;;;;5.27;84.61;101519.97;4918208;29;20036;-91
2021/01/22 09:17:36;;;;;;;81.07;50.08;;;;;;;6.06;84.56;101651.97;4932849;29;20143;-89
2021/01/22 09:20:15;;;;;;;87.72;47.53;;;;;;;5.89;85.22;101648.66;4932682;29;20036;-88
2021/01/22 09:22:43;;;;;;;71.63;45.20;;;;;;;5.04;85.47;101526.50;4921806;29;20085;-86
2021/01/22 09:25:14;;;;;;;76.50;45.45;;;;;;;5.77;85.46;101661.19;4917397;29;20106;-87
2021/01/22 09:27:43;;;;;;;76.95;47.60;;;;;;;5.69;84.97;101638.28;4919070;29;20051;-87
2021/01/22 09:30:13;;;;;;;79.00;45.47;;;;;;;5.67;85.56;101640.41;4932483;29;20048;-86
2021/01/22 09:32:44;;;;;;;74.63;44.72;;;;;;;4.89;85.52;101520.19;4932726;29;20039;-87
2021/01/22 09:35:11;;;;;;;77.45;46.67;;;;;;;5.61;85.75;101653.00;4936767;29;20035;-92
2021/01/22 09:37:41;;;;;;;78.30;45.63;;;;;;;4.50;86.90;101487.44;4933696;29;20082;-91
2021/01/22 09:40:09;;;;;;;82.40;47.28;;;;;;;4.82;86.61;101538.47;4921309;29;20042;-92
2021/01/22 09:42:37;;;;;;;77.93;45.97;;;;;;;5.49;86.73;101649.06;4930098;29;20040;-92
2021/01/22 09:45:06;;;;;;;75.40;45.50;;;;;;;4.93;86.61;101571.75;4933452;29;20032;-89
2021/01/22 09:47:33;;;;;;;73.97;44.55;;;;;;;5.33;86.75;101623.53;4911540;29;20126;-87
2021/01/22 09:50:01;;;;;;;68.72;45.03;;;;;;;4.76;87.03;101540.09;4928980;29;20115;-85
2021/01/22 09:52:28;;;;;;;78.90;48.55;;;;;;;5.02;87.08;101571.63;4933876;29;20058;-83
2021/01/22 09:54:55;;;;;;;71.13;45.30;;;;;;;4.19;86.70;101430.97;4908012;29;20031;-88
2021/01/22 09:57:22;;;;;;;82.68;46.95;;;;;;;5.40;86.68;101628.28;4937955;29;20031;-92
2021/01/22 10:00:11;;;;;;;71.85;45.88;;;;;;;4.52;86.51;101468.91;4930628;29;20119;-95
2021/01/22 10:02:41;;;;;;;78.03;48.17;;;;;;;5.34;87.07;101636.22;4940018;29;20027;-89
2021/01/22 10:05:08;;;;;;;70.05;44.60;;;;;;;5.26;87.42;101644.59;4935939;29;20051;-91
2021/01/22 10:07:36;;;;;;;81.20;49.47;;;;;;;3.14;87.42;101324.13;4932750;29;20039;-96
2021/01/22 10:10:06;;;;;;;70.63;46.10;;;;;;;4.57;87.60;101520.44;4930312;29;20032;-90
2021/01/22 10:12:33;;;;;;;72.55;47.10;;;;;;;4.19;87.06;101452.88;4929028;29;20086;-93
2021/01/22 10:15:01;;;;;;;75.95;49.80;;;;;;;4.35;87.44;101501.16;4934151;29;20059;-91
2021/01/22 10:17:27;;;;;;;79.50;49.28;;;;;;;5.17;88.01;101675.94;4902338;29;20050;-90
2021/01/22 10:19:54;;;;;;;79.80;48.28;;;;;;;4.87;87.65;101582.66;4922235;29;20031;-94
2021/01/22 10:22:21;;;;;;;84.93;49.50;;;;;;;5.35;87.79;101653.53;4921835;29;20043;-86
2021/01/22 10:24:48;;;;;;;77.78;49.05;;;;;;;4.92;86.98;101580.16;4916902;29;20027;-88
2021/01/22 10:27:15;;;;;;;83.22;52.28;;;;;;;5.27;87.41;101634.44;4923545;29;20028;-85
2021/01/22 10:29:42;;;;;;;80.18;48.42;;;;;;;5.24;87.07;101621.97;4918223;29;20028;-88
2021/01/22 10:32:09;;;;;;;85.47;51.42;;;;;;;4.71;86.53;101532.44;4916117;29;20071;-88
2021/01/22 10:34:36;;;;;;;80.78;50.40;;;;;;;5.04;86.63;101597.84;4931473;29;20036;-89
2021/01/22 10:37:03;;;;;;;86.50;52.88;;;;;;;5.55;86.54;101659.28;4933453;29;20849;-91
2021/01/22 10:39:30;;;;;;;83.45;48.97;;;;;;;4.82;86.37;101549.44;4935024;29;20034;-92
2021/01/22 10:41:56;;;;;;;84.63;49.63;;;;;;;5.19;86.42;101614.28;4906366;29;20449;-91
2021/01/22 10:44:23;;;;;;;82.13;52.85;;;;;;;5.58;85.89;101664.38;4924103;29;20039;-85
2021/01/22 10:46:50;;;;;;;80.57;51.10;;;;;;;5.50;86.38;101664.50;4926497;29;20039;-91
2021/01/22 10:49:17;;;;;;;82.05;49.67;;;;;;;5.28;86.42;101622.44;4935999;29;20024;-92
2021/01/22 10:51:44;;;;;;;87.60;52.22;;;;;;;5.33;86.46;101648.25;4936046;29;20031;-88
2021/01/22 10:54:11;;;;;;;83.82;48.08;;;;;;;5.07;86.27;101594.72;4922188;29;20043;-86
2021/01/22 10:56:42;;;;;;;82.57;50.65;;;;;;;5.11;86.02;101591.59;4918997;29;20397;-92
2021/01/22 10:59:09;;;;;;;87.10;52.60;;;;;;;4.85;85.98;101554.53;4935153;29;20028;-85
2021/01/22 11:01:36;;;;;;;90.30;52.22;;;;;;;5.29;85.92;101627.72;4931098;29;20103;-90
2021/01/22 11:04:03;;;;;;;91.53;51.92;;;;;;;5.33;85.85;101642.78;4914040;29;20111;-86
2021/01/22 11:06:30;;;;;;;97.90;55.20;;;;;;;4.89;84.88;101570.44;4931359;29;20485;-83
2021/01/22 11:08:57;;;;;;;98.05;53.10;;;;;;;5.02;84.25;101564.28;4925921;29;20055;-91
2021/01/22 11:11:24;;;;;;;89.78;52.80;;;;;;;5.69;85.14;101681.41;4941118;29;20024;-91
2021/01/22 11:13:51;;;;;;;92.90;53.72;;;;;;;5.44;84.77;101635.06;4922324;29;20067;-91
2021/01/22 11:16:21;;;;;;;89.80;54.05;;;;;;;5.73;84.87;101688.22;4933861;29;20110;-92
2021/01/22 11:18:52;;;;;;;94.80;54.58;;;;;;;3.36;84.96;101303.19;4919843;29;20031;-95
2021/01/22 11:21:19;;;;;;;94.43;52.63;;;;;;;4.23;85.21;101448.72;4934445;29;20050;-91
2021/01/22 11:23:45;;;;;;;92.22;51.90;;;;;;;4.62;85.45;101495.16;4927881;29;20440;-88
2021/01/22 11:26:12;;;;;;;92.18;51.88;;;;;;;5.89;84.68;101707.19;4928405;29;20036;-90
2021/01/22 11:28:39;;;;;;;85.07;50.72;;;;;;;4.95;84.15;101544.13;4912513;29;20028;-85
2021/01/22 11:31:06;;;;;;;90.00;53.08;;;;;;;5.86;84.83;101699.34;4930595;29;20032;-89
2021/01/22 11:33:33;;;;;;;85.53;51.97;;;;;;;4.17;84.21;101416.56;4930259;29;20119;-86
2021/01/22 11:36:01;;;;;;;82.90;51.63;;;;;;;5.56;84.09;101633.53;4920736;29;20070;-87
2021/01/22 11:38:28;;;;;;;89.50;52.92;;;;;;;4.49;84.18;101469.31;4919273;29;20035;-92